createdAt,value
2022-07-29T00:01:53.434Z,57128.34
2022-07-29T00:06:54.966Z,57128.34
2022-07-29T00:12:00.501Z,57128.34
2022-07-29T00:17:02.062Z,57128.34
2022-07-29T00:22:03.688Z,57128.34
2022-07-29T00:27:05.193Z,57128.34
2022-07-29T00:32:07.057Z,57128.34
2022-07-29T00:37:08.624Z,57128.34
2022-07-29T00:42:10.668Z,57128.34
2022-07-29T00:47:12.781Z,57128.34
2022-07-29T00:52:17.060Z,57128.34
2022-07-29T00:57:19.083Z,57128.34
2022-07-29T01:02:20.633Z,57128.34
2022-07-29T01:07:22.192Z,57128.34
2022-07-29T01:12:29.420Z,57128.34
2022-07-29T01:17:39.990Z,57128.34
2022-07-29T01:23:16.408Z,57128.34
2022-07-29T01:28:36.611Z,57128.34
2022-07-29T01:33:50.668Z,57128.34
2022-07-29T01:39:09.637Z,57128.34
2022-07-29T01:44:26.110Z,57128.34
2022-07-29T01:49:36.529Z,57128.34
2022-07-29T01:54:46.631Z,57128.34
2022-07-29T01:59:50.687Z,57128.34
2022-07-29T02:04:54.561Z,57128.34
2022-07-29T02:09:57.737Z,57128.34
2022-07-29T02:15:02.606Z,57128.34
2022-07-29T02:20:05.930Z,57128.34
2022-07-29T02:25:13.752Z,57128.34
2022-07-29T02:30:16.080Z,57128.34
2022-07-29T02:35:18.085Z,57128.34
2022-07-29T02:40:19.724Z,57128.34
2022-07-29T02:45:21.803Z,57128.34
2022-07-29T02:50:46.616Z,57128.34
2022-07-29T02:55:56.965Z,57128.34
2022-07-29T03:01:02.304Z,57128.34
2022-07-29T03:06:05.549Z,57128.34
2022-07-29T03:11:09.244Z,57128.34
2022-07-29T03:16:11.299Z,57128.34
2022-07-29T03:21:13.003Z,57128.34
2022-07-29T03:26:14.554Z,57128.34
2022-07-29T03:31:16.161Z,57128.34
2022-07-29T03:36:17.768Z,57128.34
2022-07-29T03:41:22.538Z,57128.34
2022-07-29T03:46:27.477Z,57128.34
2022-07-29T03:51:33.295Z,57128.34
2022-07-29T03:56:40.474Z,57128.34
2022-07-29T04:01:43.444Z,57128.34
2022-07-29T04:06:46.416Z,57128.34
2022-07-29T04:12:01.930Z,57128.34
2022-07-29T04:17:06.020Z,57128.34
2022-07-29T04:22:07.609Z,57128.34
2022-07-29T04:27:09.131Z,57128.34
2022-07-29T04:32:10.633Z,57128.34
2022-07-29T04:37:12.285Z,57128.34
2022-07-29T04:42:13.841Z,57128.34
2022-07-29T04:47:15.377Z,57128.34
2022-07-29T04:52:16.910Z,57128.34
2022-07-29T04:57:18.622Z,57128.34
2022-07-29T05:02:20.236Z,57128.34
2022-07-29T05:07:21.875Z,57128.34
2022-07-29T05:12:24.857Z,57128.34
2022-07-29T05:17:26.437Z,57128.34
2022-07-29T05:22:28.007Z,57128.34
2022-07-29T05:27:29.548Z,57128.34
2022-07-29T05:32:31.086Z,57128.34
2022-07-29T05:37:32.586Z,57128.34
2022-07-29T05:42:34.871Z,57128.34
2022-07-29T05:47:36.421Z,57128.34
2022-07-29T05:52:37.930Z,57128.34
2022-07-29T05:57:39.649Z,57128.34
2022-07-29T06:02:41.226Z,57128.34
2022-07-29T06:07:50.130Z,57128.34
2022-07-29T06:12:53.638Z,57128.34
2022-07-29T06:18:00.790Z,57128.34
2022-07-29T06:23:05.381Z,57128.34
2022-07-29T06:28:07.299Z,57128.34
2022-07-29T06:33:09.267Z,57128.34
2022-07-29T06:38:30.107Z,57128.34
2022-07-29T06:43:50.381Z,57128.34
2022-07-29T06:48:53.295Z,57128.34
2022-07-29T06:53:59.322Z,57128.34
2022-07-29T06:59:05.385Z,57128.34
2022-07-29T07:04:09.387Z,57128.34
2022-07-29T07:09:10.946Z,57128.34
2022-07-29T07:14:12.486Z,57128.34
2022-07-29T07:19:14.173Z,57128.34
2022-07-29T07:24:16.262Z,57128.34
2022-07-29T07:29:18.294Z,57128.34
2022-07-29T07:37:07.460Z,101846.28
2022-07-29T07:42:11.300Z,101977.22
2022-07-29T07:47:20.694Z,102132.28
2022-07-29T07:52:24.110Z,102205.81
2022-07-29T07:57:25.737Z,102387.66
2022-07-29T08:02:27.596Z,102660.22
2022-07-29T08:07:30.673Z,102667.34
2022-07-29T08:12:32.172Z,102748.25
2022-07-29T08:17:35.525Z,102852.28
2022-07-29T08:22:37.196Z,103131.84
2022-07-29T08:27:43.878Z,103043.69
2022-07-29T08:32:54.474Z,102718.94
2022-07-29T08:37:57.868Z,102852.34
2022-07-29T08:43:06.573Z,103311.09
2022-07-29T08:48:08.327Z,103361.06
2022-07-29T08:53:13.681Z,103628.03
2022-07-29T08:58:16.193Z,103693.28
2022-07-29T09:03:24.651Z,103835.50
2022-07-29T09:08:27.207Z,103855.19
2022-07-29T09:13:28.778Z,104019.03
2022-07-29T09:18:42.236Z,104084.47
2022-07-29T09:24:07.741Z,103937.66
2022-07-29T09:29:15.948Z,103971.75
2022-07-29T09:34:23.322Z,103914.50
2022-07-29T09:39:48.067Z,104005.81
2022-07-29T09:44:59.018Z,103995.13
2022-07-29T09:50:20.702Z,103990.66
2022-07-29T09:55:22.465Z,103959.38
2022-07-29T10:01:30.956Z,104302.59
2022-07-29T10:06:36.745Z,104410.38
2022-07-29T10:12:11.814Z,104282.13
2022-07-29T10:17:27.327Z,104078.59
2022-07-29T10:22:52.361Z,103861.88
2022-07-29T10:27:55.811Z,103871.78
2022-07-29T10:33:03.077Z,103702.66
2022-07-29T10:38:17.471Z,103545.31
2022-07-29T10:43:25.133Z,103519.34
2022-07-29T10:48:27.119Z,103480.03
2022-07-29T10:53:51.436Z,103638.25
2022-07-29T11:00:09.397Z,103678.47
2022-07-29T11:05:14.019Z,103606.06
2022-07-29T11:10:16.445Z,103708.88
2022-07-29T11:15:21.986Z,103623.00
2022-07-29T11:20:49.787Z,103573.84
2022-07-29T11:26:10.757Z,103438.88
2022-07-29T11:37:28.334Z,103467.44
2022-07-29T11:42:34.544Z,103480.84
2022-07-29T11:48:31.767Z,103525.50
2022-07-29T11:53:28.690Z,103445.09
2022-07-29T11:58:33.919Z,103329.84
2022-07-29T12:03:36.820Z,103285.22
2022-07-29T12:08:46.084Z,103252.13
2022-07-29T12:13:50.591Z,103206.59
2022-07-29T12:18:59.968Z,103245.84
2022-07-29T12:24:09.318Z,103095.94
2022-07-29T12:29:20.495Z,103095.06
2022-07-29T12:34:37.273Z,103167.28
2022-07-29T12:39:39.956Z,103208.31
2022-07-29T12:44:46.192Z,103099.47
2022-07-29T12:49:49.374Z,103085.19
2022-07-29T12:54:50.972Z,103115.50
2022-07-29T13:00:13.569Z,103090.50
2022-07-29T13:05:15.575Z,103082.44
2022-07-29T13:10:22.092Z,103100.25
2022-07-29T13:15:26.819Z,103024.50
2022-07-29T13:20:35.757Z,102899.69
2022-07-29T13:25:42.206Z,102831.06
2022-07-29T13:30:44.846Z,102771.38
2022-07-29T13:35:46.669Z,102723.28
2022-07-29T13:40:48.655Z,102709.94
2022-07-29T13:45:50.331Z,102715.25
2022-07-29T13:50:51.958Z,102724.16
2022-07-29T13:55:54.117Z,102729.44
2022-07-29T14:00:57.784Z,102700.09
2022-07-29T14:06:00.903Z,102699.19
2022-07-29T14:11:03.057Z,102644.88
2022-07-29T14:16:05.221Z,102595.06
2022-07-29T14:21:06.864Z,102541.69
2022-07-29T14:26:08.815Z,102513.22
2022-07-29T14:31:15.272Z,102491.88
2022-07-29T14:36:16.954Z,102433.19
2022-07-29T14:41:18.790Z,102430.53
2022-07-29T14:46:20.721Z,102371.91
2022-07-29T14:51:22.338Z,102323.00
2022-07-29T14:56:37.030Z,102271.53
2022-07-29T15:01:40.388Z,102221.81
2022-07-29T15:06:42.353Z,102162.34
2022-07-29T15:11:44.146Z,102057.66
2022-07-29T15:16:46.613Z,101975.25
2022-07-29T15:21:51.061Z,101862.72
2022-07-29T15:26:52.751Z,101820.25
2022-07-29T15:31:54.909Z,101816.75
2022-07-29T15:36:56.605Z,101737.97
2022-07-29T15:42:01.132Z,101695.56
2022-07-29T15:47:09.021Z,101665.44
2022-07-29T15:52:11.079Z,101661.97
2022-07-29T15:57:14.412Z,101623.94
2022-07-29T16:02:16.097Z,101588.66
2022-07-29T16:07:18.168Z,101549.75
2022-07-29T16:12:20.135Z,101529.44
2022-07-29T16:17:21.905Z,101534.78
2022-07-29T16:22:23.562Z,101550.75
2022-07-29T16:27:31.363Z,101517.19
2022-07-29T16:32:39.872Z,101506.59
2022-07-29T16:37:41.578Z,101472.16
2022-07-29T16:42:47.370Z,101440.31
2022-07-29T16:47:49.295Z,101422.69
2022-07-29T16:52:51.794Z,101428.88
2022-07-29T16:57:53.475Z,101447.47
2022-07-29T17:02:56.115Z,101444.84
2022-07-29T17:07:58.439Z,101437.78
2022-07-29T17:13:00.933Z,101419.22
2022-07-29T17:18:02.973Z,101407.78
2022-07-29T17:23:14.781Z,101387.47
2022-07-29T17:28:16.368Z,101403.41
2022-07-29T17:33:18.413Z,101386.63
2022-07-29T17:38:21.658Z,101364.56
2022-07-29T17:43:23.453Z,101357.53
2022-07-29T17:48:26.492Z,101360.22
2022-07-29T17:53:28.403Z,101352.25
2022-07-29T17:58:31.075Z,101370.81
2022-07-29T18:03:32.850Z,101354.03
2022-07-29T18:08:34.963Z,101341.66
2022-07-29T18:13:37.105Z,101323.13
2022-07-29T18:18:38.797Z,101311.63
2022-07-29T18:23:40.644Z,101253.41
2022-07-29T18:28:42.292Z,101215.47
2022-07-29T18:33:44.145Z,101137.84
2022-07-29T18:38:45.974Z,101093.78
2022-07-29T18:43:47.686Z,101106.16
2022-07-29T18:48:50.013Z,101088.53
2022-07-29T18:53:52.431Z,101073.59
2022-07-29T18:58:55.149Z,101083.31
2022-07-29T19:03:56.758Z,101050.69
2022-07-29T19:08:58.518Z,101056.88
2022-07-29T19:14:00.126Z,101044.53
2022-07-29T19:19:02.040Z,101053.41
2022-07-29T19:24:06.680Z,101066.66
2022-07-29T19:29:10.049Z,101079.03
2022-07-29T19:34:11.998Z,101094.00
2022-07-29T19:39:15.328Z,101121.41
2022-07-29T19:44:17.205Z,101114.38
2022-07-29T19:49:18.794Z,101099.38
2022-07-29T19:54:20.680Z,101065.88
2022-07-29T19:59:23.875Z,101020.06
2022-07-29T20:04:26.217Z,100971.56
2022-07-29T20:09:28.114Z,100943.38
2022-07-29T20:14:29.859Z,100923.16
2022-07-29T20:19:33.069Z,100884.47
2022-07-29T20:24:34.752Z,100823.63
2022-07-29T20:29:37.504Z,100817.53
2022-07-29T20:34:41.283Z,100780.56
2022-07-29T20:39:43.025Z,100777.03
2022-07-29T20:44:44.686Z,100768.28
2022-07-29T20:49:46.337Z,100742.81
2022-07-29T20:54:48.814Z,100720.88
2022-07-29T20:59:50.415Z,100705.06
2022-07-29T21:04:52.143Z,100676.91
2022-07-29T21:09:53.746Z,100662.88
2022-07-29T21:14:55.791Z,100637.38
2022-07-29T21:19:57.796Z,100620.66
2022-07-29T21:24:59.535Z,100599.59
2022-07-29T21:30:01.209Z,100560.94
2022-07-29T21:35:03.436Z,100506.44
2022-07-29T21:40:16.944Z,100475.69
2022-07-29T21:45:18.650Z,100446.75
2022-07-29T21:50:20.304Z,100441.50
2022-07-29T21:55:22.086Z,100417.81
2022-07-29T22:00:26.665Z,100366.91
2022-07-29T22:05:29.499Z,100345.00
2022-07-29T22:10:31.326Z,100333.59
2022-07-29T22:15:33.340Z,100335.41
2022-07-29T22:20:35.535Z,100328.34
2022-07-29T22:25:37.327Z,100332.81
2022-07-29T22:30:38.927Z,100317.06
2022-07-29T22:35:40.493Z,100298.63
2022-07-29T22:40:42.048Z,100310.94
2022-07-29T22:45:45.469Z,100323.25
2022-07-29T22:50:47.291Z,100338.22
2022-07-29T22:55:49.523Z,100368.97
2022-07-29T23:00:51.422Z,100364.59
2022-07-29T23:05:53.167Z,100372.56
2022-07-29T23:10:55.114Z,100385.75
2022-07-29T23:15:56.777Z,100393.69
2022-07-29T23:20:58.669Z,100392.81
2022-07-29T23:26:00.813Z,100391.94
2022-07-29T23:31:02.442Z,100385.81
2022-07-29T23:36:04.207Z,100377.94
2022-07-29T23:41:08.929Z,100379.72
2022-07-29T23:46:10.706Z,100369.22
2022-07-29T23:51:13.572Z,100314.78
2022-07-29T23:56:15.181Z,100314.78
